sensor_id;sensor_type;location;lat;lon;timestamp;P1;durP1;ratioP1;P2;durP2;ratioP2
5341;SDS011;2693;48.822;9.062;2024-01-27T00:01:20;6.53;;;3.60;;
5341;SDS011;2693;48.822;9.062;2024-01-27T00:03:46;6.82;;;3.60;;
5341;SDS011;2693;48.822;9.062;2024-01-27T00:06:11;7.05;;;3.50;;
5341;SDS011;2693;48.822;9.062;2024-01-27T00:08:37;4.97;;;3.47;;
5341;SDS011;2693;48.822;9.062;2024-01-27T00:11:02;5.20;;;4.07;;
5341;SDS011;2693;48.822;9.062;2024-01-27T00:13:27;5.22;;;3.53;;
5341;SDS011;2693;48.822;9.062;2024-01-27T00:15:53;5.05;;;3.33;;
5341;SDS011;2693;48.822;9.062;2024-01-27T00:18:19;6.40;;;4.00;;
5341;SDS011;2693;48.822;9.062;2024-01-27T00:20:45;6.13;;;3.70;;
5341;SDS011;2693;48.822;9.062;2024-01-27T00:23:10;6.82;;;4.00;;
5341;SDS011;2693;48.822;9.062;2024-01-27T00:25:36;5.88;;;3.75;;
5341;SDS011;2693;48.822;9.062;2024-01-27T00:28:01;5.95;;;3.38;;
5341;SDS011;2693;48.822;9.062;2024-01-27T00:30:27;4.05;;;3.25;;
5341;SDS011;2693;48.822;9.062;2024-01-27T00:32:52;5.30;;;3.88;;
5341;SDS011;2693;48.822;9.062;2024-01-27T00:35:17;5.10;;;3.85;;
5341;SDS011;2693;48.822;9.062;2024-01-27T00:37:43;5.25;;;3.72;;
5341;SDS011;2693;48.822;9.062;2024-01-27T00:40:10;3.60;;;3.28;;
5341;SDS011;2693;48.822;9.062;2024-01-27T00:42:38;5.18;;;3.47;;
5341;SDS011;2693;48.822;9.062;2024-01-27T00:45:05;5.05;;;3.17;;
5341;SDS011;2693;48.822;9.062;2024-01-27T00:47:31;5.85;;;3.47;;
5341;SDS011;2693;48.822;9.062;2024-01-27T00:49:56;5.57;;;3.33;;
5341;SDS011;2693;48.822;9.062;2024-01-27T00:52:21;6.90;;;3.57;;
5341;SDS011;2693;48.822;9.062;2024-01-27T00:54:47;3.65;;;3.13;;
5341;SDS011;2693;48.822;9.062;2024-01-27T00:57:12;4.90;;;3.40;;
5341;SDS011;2693;48.822;9.062;2024-01-27T00:59:38;5.93;;;3.83;;
5341;SDS011;2693;48.822;9.062;2024-01-27T01:02:04;4.90;;;3.60;;
5341;SDS011;2693;48.822;9.062;2024-01-27T01:04:29;5.82;;;3.85;;
5341;SDS011;2693;48.822;9.062;2024-01-27T01:06:55;8.17;;;3.27;;
5341;SDS011;2693;48.822;9.062;2024-01-27T01:09:20;4.07;;;2.87;;
5341;SDS011;2693;48.822;9.062;2024-01-27T01:11:45;4.95;;;3.20;;
5341;SDS011;2693;48.822;9.062;2024-01-27T01:14:11;6.38;;;2.95;;
5341;SDS011;2693;48.822;9.062;2024-01-27T01:16:36;4.07;;;3.30;;
5341;SDS011;2693;48.822;9.062;2024-01-27T01:19:02;7.97;;;3.60;;
5341;SDS011;2693;48.822;9.062;2024-01-27T01:21:27;4.57;;;3.07;;
5341;SDS011;2693;48.822;9.062;2024-01-27T01:23:53;4.73;;;3.30;;
5341;SDS011;2693;48.822;9.062;2024-01-27T01:26:19;7.90;;;2.93;;
5341;SDS011;2693;48.822;9.062;2024-01-27T01:28:44;3.30;;;3.00;;
5341;SDS011;2693;48.822;9.062;2024-01-27T01:31:09;5.17;;;3.20;;
5341;SDS011;2693;48.822;9.062;2024-01-27T01:33:35;4.10;;;3.30;;
5341;SDS011;2693;48.822;9.062;2024-01-27T01:36:00;7.67;;;3.37;;
5341;SDS011;2693;48.822;9.062;2024-01-27T01:38:25;6.23;;;3.10;;
5341;SDS011;2693;48.822;9.062;2024-01-27T01:40:51;4.43;;;3.20;;
5341;SDS011;2693;48.822;9.062;2024-01-27T01:43:16;5.13;;;2.80;;
5341;SDS011;2693;48.822;9.062;2024-01-27T01:45:41;4.37;;;3.10;;
5341;SDS011;2693;48.822;9.062;2024-01-27T01:48:07;7.03;;;3.27;;
5341;SDS011;2693;48.822;9.062;2024-01-27T01:50:32;4.10;;;3.10;;
5341;SDS011;2693;48.822;9.062;2024-01-27T01:52:58;6.47;;;3.80;;
5341;SDS011;2693;48.822;9.062;2024-01-27T01:55:23;5.50;;;3.43;;
5341;SDS011;2693;48.822;9.062;2024-01-27T01:57:49;4.63;;;3.57;;
5341;SDS011;2693;48.822;9.062;2024-01-27T02:00:14;4.43;;;3.13;;
5341;SDS011;2693;48.822;9.062;2024-01-27T02:02:42;4.27;;;3.10;;
5341;SDS011;2693;48.822;9.062;2024-01-27T02:05:08;4.80;;;3.23;;
5341;SDS011;2693;48.822;9.062;2024-01-27T02:07:35;3.77;;;3.13;;
5341;SDS011;2693;48.822;9.062;2024-01-27T02:10:00;4.60;;;3.37;;
5341;SDS011;2693;48.822;9.062;2024-01-27T02:12:26;7.57;;;3.93;;
5341;SDS011;2693;48.822;9.062;2024-01-27T02:14:52;6.53;;;3.30;;
5341;SDS011;2693;48.822;9.062;2024-01-27T02:17:17;3.47;;;3.00;;
5341;SDS011;2693;48.822;9.062;2024-01-27T02:19:42;5.17;;;3.47;;
5341;SDS011;2693;48.822;9.062;2024-01-27T02:22:08;5.40;;;3.23;;
5341;SDS011;2693;48.822;9.062;2024-01-27T02:24:33;4.63;;;3.60;;
5341;SDS011;2693;48.822;9.062;2024-01-27T02:26:59;4.27;;;3.23;;
5341;SDS011;2693;48.822;9.062;2024-01-27T02:29:24;7.47;;;3.57;;
5341;SDS011;2693;48.822;9.062;2024-01-27T02:31:52;4.57;;;3.83;;
5341;SDS011;2693;48.822;9.062;2024-01-27T02:34:18;7.43;;;3.77;;
5341;SDS011;2693;48.822;9.062;2024-01-27T02:36:43;5.70;;;3.73;;
5341;SDS011;2693;48.822;9.062;2024-01-27T02:39:09;5.00;;;3.20;;
5341;SDS011;2693;48.822;9.062;2024-01-27T02:41:34;7.73;;;3.27;;
5341;SDS011;2693;48.822;9.062;2024-01-27T02:44:03;6.60;;;3.70;;
5341;SDS011;2693;48.822;9.062;2024-01-27T02:46:29;5.47;;;3.20;;
5341;SDS011;2693;48.822;9.062;2024-01-27T02:48:55;5.07;;;3.63;;
5341;SDS011;2693;48.822;9.062;2024-01-27T02:51:20;4.97;;;3.27;;
5341;SDS011;2693;48.822;9.062;2024-01-27T02:53:45;5.10;;;3.20;;
5341;SDS011;2693;48.822;9.062;2024-01-27T02:56:11;7.10;;;3.40;;
5341;SDS011;2693;48.822;9.062;2024-01-27T02:58:36;6.97;;;3.50;;
5341;SDS011;2693;48.822;9.062;2024-01-27T03:01:01;7.23;;;3.40;;
5341;SDS011;2693;48.822;9.062;2024-01-27T03:03:27;5.70;;;3.13;;
5341;SDS011;2693;48.822;9.062;2024-01-27T03:05:54;4.30;;;2.70;;
5341;SDS011;2693;48.822;9.062;2024-01-27T03:08:19;7.60;;;3.57;;
5341;SDS011;2693;48.822;9.062;2024-01-27T03:10:44;4.50;;;3.50;;
5341;SDS011;2693;48.822;9.062;2024-01-27T03:13:10;3.93;;;3.30;;
5341;SDS011;2693;48.822;9.062;2024-01-27T03:15:36;3.67;;;2.90;;
5341;SDS011;2693;48.822;9.062;2024-01-27T03:18:02;7.43;;;3.10;;
5341;SDS011;2693;48.822;9.062;2024-01-27T03:20:28;4.17;;;3.00;;
5341;SDS011;2693;48.822;9.062;2024-01-27T03:22:56;4.10;;;3.00;;
5341;SDS011;2693;48.822;9.062;2024-01-27T03:25:21;8.27;;;3.43;;
5341;SDS011;2693;48.822;9.062;2024-01-27T03:27:46;6.37;;;3.10;;
5341;SDS011;2693;48.822;9.062;2024-01-27T03:30:12;6.40;;;3.43;;
5341;SDS011;2693;48.822;9.062;2024-01-27T03:32:37;6.33;;;3.30;;
5341;SDS011;2693;48.822;9.062;2024-01-27T03:35:03;3.97;;;3.23;;
5341;SDS011;2693;48.822;9.062;2024-01-27T03:37:29;6.07;;;3.57;;
5341;SDS011;2693;48.822;9.062;2024-01-27T03:39:54;4.20;;;3.10;;
5341;SDS011;2693;48.822;9.062;2024-01-27T03:42:20;3.93;;;2.90;;
5341;SDS011;2693;48.822;9.062;2024-01-27T03:44:46;5.97;;;3.47;;
5341;SDS011;2693;48.822;9.062;2024-01-27T03:47:11;7.00;;;3.13;;
5341;SDS011;2693;48.822;9.062;2024-01-27T03:49:36;5.07;;;3.60;;
5341;SDS011;2693;48.822;9.062;2024-01-27T03:52:02;4.77;;;2.67;;
5341;SDS011;2693;48.822;9.062;2024-01-27T03:54:27;4.17;;;3.10;;
5341;SDS011;2693;48.822;9.062;2024-01-27T03:56:54;5.13;;;3.10;;
5341;SDS011;2693;48.822;9.062;2024-01-27T03:59:19;6.53;;;2.97;;
5341;SDS011;2693;48.822;9.062;2024-01-27T04:01:44;3.97;;;2.93;;
5341;SDS011;2693;48.822;9.062;2024-01-27T04:04:10;4.67;;;3.23;;
5341;SDS011;2693;48.822;9.062;2024-01-27T04:06:36;5.87;;;2.80;;
5341;SDS011;2693;48.822;9.062;2024-01-27T04:09:04;4.70;;;3.33;;
5341;SDS011;2693;48.822;9.062;2024-01-27T04:11:29;3.10;;;2.80;;
5341;SDS011;2693;48.822;9.062;2024-01-27T04:13:55;3.00;;;2.60;;
5341;SDS011;2693;48.822;9.062;2024-01-27T04:16:20;3.63;;;2.97;;
5341;SDS011;2693;48.822;9.062;2024-01-27T04:18:46;4.70;;;2.87;;
5341;SDS011;2693;48.822;9.062;2024-01-27T04:21:11;3.80;;;3.20;;
5341;SDS011;2693;48.822;9.062;2024-01-27T04:23:37;4.83;;;2.63;;
5341;SDS011;2693;48.822;9.062;2024-01-27T04:26:02;5.37;;;3.30;;
5341;SDS011;2693;48.822;9.062;2024-01-27T04:28:27;9.23;;;3.47;;
5341;SDS011;2693;48.822;9.062;2024-01-27T04:30:55;5.03;;;3.17;;
5341;SDS011;2693;48.822;9.062;2024-01-27T04:33:20;4.40;;;2.80;;
5341;SDS011;2693;48.822;9.062;2024-01-27T04:35:46;4.57;;;3.00;;
5341;SDS011;2693;48.822;9.062;2024-01-27T04:38:11;6.83;;;3.40;;
5341;SDS011;2693;48.822;9.062;2024-01-27T04:40:36;3.77;;;3.17;;
5341;SDS011;2693;48.822;9.062;2024-01-27T04:43:02;6.60;;;2.87;;
5341;SDS011;2693;48.822;9.062;2024-01-27T04:45:28;5.90;;;3.20;;
5341;SDS011;2693;48.822;9.062;2024-01-27T04:47:53;5.80;;;3.60;;
5341;SDS011;2693;48.822;9.062;2024-01-27T04:50:19;3.20;;;2.90;;
5341;SDS011;2693;48.822;9.062;2024-01-27T04:52:45;4.73;;;3.20;;
5341;SDS011;2693;48.822;9.062;2024-01-27T04:55:10;4.13;;;3.10;;
5341;SDS011;2693;48.822;9.062;2024-01-27T04:57:36;4.37;;;3.00;;
5341;SDS011;2693;48.822;9.062;2024-01-27T05:00:01;4.87;;;3.00;;
5341;SDS011;2693;48.822;9.062;2024-01-27T05:02:28;3.70;;;3.20;;
5341;SDS011;2693;48.822;9.062;2024-01-27T05:04:53;4.10;;;3.20;;
5341;SDS011;2693;48.822;9.062;2024-01-27T05:07:19;4.93;;;3.03;;
5341;SDS011;2693;48.822;9.062;2024-01-27T05:09:45;5.93;;;3.30;;
5341;SDS011;2693;48.822;9.062;2024-01-27T05:12:10;3.33;;;2.90;;
5341;SDS011;2693;48.822;9.062;2024-01-27T05:14:35;4.17;;;3.30;;
5341;SDS011;2693;48.822;9.062;2024-01-27T05:17:01;4.53;;;3.30;;
5341;SDS011;2693;48.822;9.062;2024-01-27T05:19:26;4.27;;;3.10;;
5341;SDS011;2693;48.822;9.062;2024-01-27T05:21:51;5.13;;;3.60;;
5341;SDS011;2693;48.822;9.062;2024-01-27T05:24:17;5.83;;;3.10;;
5341;SDS011;2693;48.822;9.062;2024-01-27T05:26:42;4.47;;;2.90;;
5341;SDS011;2693;48.822;9.062;2024-01-27T05:29:07;4.77;;;3.17;;
5341;SDS011;2693;48.822;9.062;2024-01-27T05:31:33;6.70;;;3.27;;
5341;SDS011;2693;48.822;9.062;2024-01-27T05:33:59;3.53;;;2.73;;
5341;SDS011;2693;48.822;9.062;2024-01-27T05:36:25;3.30;;;3.00;;
5341;SDS011;2693;48.822;9.062;2024-01-27T05:38:50;6.57;;;3.57;;
5341;SDS011;2693;48.822;9.062;2024-01-27T05:41:15;3.30;;;3.00;;
5341;SDS011;2693;48.822;9.062;2024-01-27T05:43:41;4.57;;;3.07;;
5341;SDS011;2693;48.822;9.062;2024-01-27T05:46:08;7.53;;;3.30;;
5341;SDS011;2693;48.822;9.062;2024-01-27T05:48:34;5.67;;;3.67;;
5341;SDS011;2693;48.822;9.062;2024-01-27T05:50:59;9.63;;;3.80;;
5341;SDS011;2693;48.822;9.062;2024-01-27T05:53:26;4.00;;;3.20;;
5341;SDS011;2693;48.822;9.062;2024-01-27T05:55:52;5.20;;;3.27;;
5341;SDS011;2693;48.822;9.062;2024-01-27T05:58:18;7.10;;;3.03;;
5341;SDS011;2693;48.822;9.062;2024-01-27T06:00:46;5.10;;;3.00;;
5341;SDS011;2693;48.822;9.062;2024-01-27T06:03:12;7.87;;;3.47;;
5341;SDS011;2693;48.822;9.062;2024-01-27T06:05:37;7.07;;;3.43;;
5341;SDS011;2693;48.822;9.062;2024-01-27T06:08:03;4.23;;;2.93;;
5341;SDS011;2693;48.822;9.062;2024-01-27T06:10:30;3.60;;;3.07;;
5341;SDS011;2693;48.822;9.062;2024-01-27T06:12:56;5.40;;;3.33;;
5341;SDS011;2693;48.822;9.062;2024-01-27T06:15:21;5.33;;;3.47;;
5341;SDS011;2693;48.822;9.062;2024-01-27T06:17:47;5.43;;;2.87;;
5341;SDS011;2693;48.822;9.062;2024-01-27T06:20:12;3.77;;;3.40;;
5341;SDS011;2693;48.822;9.062;2024-01-27T06:22:38;5.60;;;3.20;;
5341;SDS011;2693;48.822;9.062;2024-01-27T06:25:04;6.10;;;3.23;;
5341;SDS011;2693;48.822;9.062;2024-01-27T06:27:29;5.37;;;3.27;;
5341;SDS011;2693;48.822;9.062;2024-01-27T06:29:55;5.23;;;3.40;;
5341;SDS011;2693;48.822;9.062;2024-01-27T06:32:20;4.93;;;3.63;;
5341;SDS011;2693;48.822;9.062;2024-01-27T06:34:46;5.67;;;3.50;;
5341;SDS011;2693;48.822;9.062;2024-01-27T06:37:11;4.83;;;3.40;;
5341;SDS011;2693;48.822;9.062;2024-01-27T06:39:36;5.53;;;3.37;;
5341;SDS011;2693;48.822;9.062;2024-01-27T06:42:02;6.27;;;4.20;;
5341;SDS011;2693;48.822;9.062;2024-01-27T06:44:27;5.67;;;3.47;;
5341;SDS011;2693;48.822;9.062;2024-01-27T06:46:53;5.80;;;3.77;;
5341;SDS011;2693;48.822;9.062;2024-01-27T06:49:18;6.73;;;3.60;;
5341;SDS011;2693;48.822;9.062;2024-01-27T06:51:44;6.20;;;3.27;;
5341;SDS011;2693;48.822;9.062;2024-01-27T06:54:10;6.13;;;3.50;;
5341;SDS011;2693;48.822;9.062;2024-01-27T06:56:35;4.67;;;3.87;;
5341;SDS011;2693;48.822;9.062;2024-01-27T06:59:00;10.40;;;4.57;;
5341;SDS011;2693;48.822;9.062;2024-01-27T07:01:26;7.07;;;3.80;;
5341;SDS011;2693;48.822;9.062;2024-01-27T07:03:51;7.83;;;3.60;;
5341;SDS011;2693;48.822;9.062;2024-01-27T07:06:16;6.77;;;3.90;;
5341;SDS011;2693;48.822;9.062;2024-01-27T07:08:42;6.47;;;3.77;;
5341;SDS011;2693;48.822;9.062;2024-01-27T07:11:07;7.00;;;3.90;;
5341;SDS011;2693;48.822;9.062;2024-01-27T07:13:32;11.60;;;5.10;;
5341;SDS011;2693;48.822;9.062;2024-01-27T07:15:58;9.33;;;4.07;;
5341;SDS011;2693;48.822;9.062;2024-01-27T07:18:23;9.03;;;4.00;;
5341;SDS011;2693;48.822;9.062;2024-01-27T07:20:49;6.43;;;3.70;;
5341;SDS011;2693;48.822;9.062;2024-01-27T07:23:14;10.80;;;4.60;;
5341;SDS011;2693;48.822;9.062;2024-01-27T07:25:40;7.80;;;4.37;;
5341;SDS011;2693;48.822;9.062;2024-01-27T07:28:05;6.90;;;4.23;;
5341;SDS011;2693;48.822;9.062;2024-01-27T07:30:31;8.80;;;5.10;;
5341;SDS011;2693;48.822;9.062;2024-01-27T07:32:56;11.43;;;4.97;;
5341;SDS011;2693;48.822;9.062;2024-01-27T07:35:22;12.93;;;5.73;;
5341;SDS011;2693;48.822;9.062;2024-01-27T07:37:47;12.33;;;6.80;;
5341;SDS011;2693;48.822;9.062;2024-01-27T07:40:12;13.30;;;7.55;;
5341;SDS011;2693;48.822;9.062;2024-01-27T07:42:38;16.02;;;7.97;;
5341;SDS011;2693;48.822;9.062;2024-01-27T07:45:03;16.00;;;8.70;;
5341;SDS011;2693;48.822;9.062;2024-01-27T07:47:29;14.93;;;8.18;;
5341;SDS011;2693;48.822;9.062;2024-01-27T07:49:55;13.88;;;7.68;;
5341;SDS011;2693;48.822;9.062;2024-01-27T07:52:20;13.38;;;7.10;;
5341;SDS011;2693;48.822;9.062;2024-01-27T07:54:45;12.70;;;6.35;;
5341;SDS011;2693;48.822;9.062;2024-01-27T07:57:11;7.10;;;5.32;;
5341;SDS011;2693;48.822;9.062;2024-01-27T07:59:37;10.20;;;5.45;;
5341;SDS011;2693;48.822;9.062;2024-01-27T08:02:03;8.05;;;5.55;;
5341;SDS011;2693;48.822;9.062;2024-01-27T08:04:28;7.75;;;4.32;;
5341;SDS011;2693;48.822;9.062;2024-01-27T08:06:54;4.57;;;3.38;;
5341;SDS011;2693;48.822;9.062;2024-01-27T08:09:19;5.75;;;2.88;;
5341;SDS011;2693;48.822;9.062;2024-01-27T08:11:45;4.88;;;3.08;;
5341;SDS011;2693;48.822;9.062;2024-01-27T08:14:10;5.03;;;2.70;;
5341;SDS011;2693;48.822;9.062;2024-01-27T08:16:36;6.35;;;2.83;;
5341;SDS011;2693;48.822;9.062;2024-01-27T08:19:01;4.72;;;2.38;;
5341;SDS011;2693;48.822;9.062;2024-01-27T08:21:27;4.55;;;2.40;;
5341;SDS011;2693;48.822;9.062;2024-01-27T08:23:53;5.28;;;2.50;;
5341;SDS011;2693;48.822;9.062;2024-01-27T08:26:18;2.88;;;2.25;;
5341;SDS011;2693;48.822;9.062;2024-01-27T08:28:45;5.22;;;2.45;;
5341;SDS011;2693;48.822;9.062;2024-01-27T08:31:11;11.13;;;3.00;;
5341;SDS011;2693;48.822;9.062;2024-01-27T08:33:37;5.28;;;2.60;;
5341;SDS011;2693;48.822;9.062;2024-01-27T08:36:02;4.05;;;2.28;;
5341;SDS011;2693;48.822;9.062;2024-01-27T08:38:27;4.13;;;2.60;;
5341;SDS011;2693;48.822;9.062;2024-01-27T08:40:53;5.07;;;2.90;;
5341;SDS011;2693;48.822;9.062;2024-01-27T08:43:18;4.75;;;2.40;;
5341;SDS011;2693;48.822;9.062;2024-01-27T08:45:44;4.75;;;2.60;;
5341;SDS011;2693;48.822;9.062;2024-01-27T08:48:09;4.55;;;2.42;;
5341;SDS011;2693;48.822;9.062;2024-01-27T08:50:36;3.67;;;3.03;;
5341;SDS011;2693;48.822;9.062;2024-01-27T08:53:02;5.35;;;4.30;;
5341;SDS011;2693;48.822;9.062;2024-01-27T08:55:27;7.60;;;4.30;;
5341;SDS011;2693;48.822;9.062;2024-01-27T08:57:52;6.63;;;3.50;;
5341;SDS011;2693;48.822;9.062;2024-01-27T09:00:18;6.30;;;3.35;;
5341;SDS011;2693;48.822;9.062;2024-01-27T09:02:44;5.00;;;3.53;;
5341;SDS011;2693;48.822;9.062;2024-01-27T09:05:09;6.53;;;3.25;;
5341;SDS011;2693;48.822;9.062;2024-01-27T09:07:34;4.65;;;3.47;;
5341;SDS011;2693;48.822;9.062;2024-01-27T09:10:00;6.03;;;3.38;;
5341;SDS011;2693;48.822;9.062;2024-01-27T09:12:26;4.15;;;3.20;;
5341;SDS011;2693;48.822;9.062;2024-01-27T09:14:51;6.70;;;3.78;;
5341;SDS011;2693;48.822;9.062;2024-01-27T09:17:18;4.25;;;2.78;;
5341;SDS011;2693;48.822;9.062;2024-01-27T09:19:44;3.85;;;2.50;;
5341;SDS011;2693;48.822;9.062;2024-01-27T09:22:09;4.93;;;2.70;;
5341;SDS011;2693;48.822;9.062;2024-01-27T09:24:35;4.47;;;2.65;;
5341;SDS011;2693;48.822;9.062;2024-01-27T09:27:00;3.03;;;2.35;;
5341;SDS011;2693;48.822;9.062;2024-01-27T09:29:27;5.55;;;2.53;;
5341;SDS011;2693;48.822;9.062;2024-01-27T09:31:52;5.50;;;2.40;;
5341;SDS011;2693;48.822;9.062;2024-01-27T09:34:17;8.30;;;2.78;;
5341;SDS011;2693;48.822;9.062;2024-01-27T09:36:43;4.95;;;2.88;;
5341;SDS011;2693;48.822;9.062;2024-01-27T09:39:08;5.82;;;3.03;;
5341;SDS011;2693;48.822;9.062;2024-01-27T09:41:34;5.82;;;3.28;;
5341;SDS011;2693;48.822;9.062;2024-01-27T09:44:00;5.82;;;2.60;;
5341;SDS011;2693;48.822;9.062;2024-01-27T09:46:27;5.72;;;3.00;;
5341;SDS011;2693;48.822;9.062;2024-01-27T09:48:53;4.53;;;3.35;;
5341;SDS011;2693;48.822;9.062;2024-01-27T09:51:19;4.45;;;2.78;;
5341;SDS011;2693;48.822;9.062;2024-01-27T09:53:44;5.80;;;3.65;;
5341;SDS011;2693;48.822;9.062;2024-01-27T09:56:10;6.03;;;3.65;;
5341;SDS011;2693;48.822;9.062;2024-01-27T09:58:36;6.95;;;2.97;;
5341;SDS011;2693;48.822;9.062;2024-01-27T10:01:01;4.85;;;2.75;;
5341;SDS011;2693;48.822;9.062;2024-01-27T10:03:28;4.70;;;2.80;;
5341;SDS011;2693;48.822;9.062;2024-01-27T10:05:54;5.30;;;3.00;;
5341;SDS011;2693;48.822;9.062;2024-01-27T10:08:21;6.28;;;3.17;;
5341;SDS011;2693;48.822;9.062;2024-01-27T10:10:47;5.13;;;2.88;;
5341;SDS011;2693;48.822;9.062;2024-01-27T10:13:14;3.92;;;2.80;;
5341;SDS011;2693;48.822;9.062;2024-01-27T10:15:39;7.57;;;2.88;;
5341;SDS011;2693;48.822;9.062;2024-01-27T10:18:05;5.93;;;2.92;;
5341;SDS011;2693;48.822;9.062;2024-01-27T10:20:31;4.55;;;2.97;;
5341;SDS011;2693;48.822;9.062;2024-01-27T10:22:57;7.70;;;3.13;;
5341;SDS011;2693;48.822;9.062;2024-01-27T10:25:22;5.10;;;2.70;;
5341;SDS011;2693;48.822;9.062;2024-01-27T10:27:48;6.80;;;2.90;;
5341;SDS011;2693;48.822;9.062;2024-01-27T10:30:17;4.22;;;3.25;;
5341;SDS011;2693;48.822;9.062;2024-01-27T10:32:43;5.50;;;3.00;;
5341;SDS011;2693;48.822;9.062;2024-01-27T10:35:09;4.78;;;2.78;;
5341;SDS011;2693;48.822;9.062;2024-01-27T10:37:34;4.28;;;2.58;;
5341;SDS011;2693;48.822;9.062;2024-01-27T10:40:03;6.65;;;2.80;;
5341;SDS011;2693;48.822;9.062;2024-01-27T10:42:30;6.38;;;3.00;;
5341;SDS011;2693;48.822;9.062;2024-01-27T10:44:58;5.78;;;3.28;;
5341;SDS011;2693;48.822;9.062;2024-01-27T10:47:28;7.47;;;3.35;;
5341;SDS011;2693;48.822;9.062;2024-01-27T10:49:57;8.68;;;3.35;;
5341;SDS011;2693;48.822;9.062;2024-01-27T10:52:24;8.25;;;2.95;;
5341;SDS011;2693;48.822;9.062;2024-01-27T10:54:54;5.45;;;3.92;;
5341;SDS011;2693;48.822;9.062;2024-01-27T10:57:22;6.40;;;3.85;;
5341;SDS011;2693;48.822;9.062;2024-01-27T10:59:50;6.90;;;3.50;;
5341;SDS011;2693;48.822;9.062;2024-01-27T11:02:19;6.93;;;3.05;;
5341;SDS011;2693;48.822;9.062;2024-01-27T11:04:44;5.53;;;3.30;;
5341;SDS011;2693;48.822;9.062;2024-01-27T11:07:10;6.68;;;3.83;;
5341;SDS011;2693;48.822;9.062;2024-01-27T11:09:36;5.28;;;3.50;;
5341;SDS011;2693;48.822;9.062;2024-01-27T11:12:01;7.70;;;3.95;;
5341;SDS011;2693;48.822;9.062;2024-01-27T11:14:27;7.82;;;3.90;;
5341;SDS011;2693;48.822;9.062;2024-01-27T11:16:56;8.18;;;3.80;;
5341;SDS011;2693;48.822;9.062;2024-01-27T11:19:22;10.32;;;3.90;;
5341;SDS011;2693;48.822;9.062;2024-01-27T11:21:47;7.50;;;3.80;;
5341;SDS011;2693;48.822;9.062;2024-01-27T11:24:15;7.03;;;3.65;;
5341;SDS011;2693;48.822;9.062;2024-01-27T11:26:41;5.80;;;4.20;;
5341;SDS011;2693;48.822;9.062;2024-01-27T11:29:07;5.85;;;3.92;;
5341;SDS011;2693;48.822;9.062;2024-01-27T11:31:35;8.35;;;4.07;;
5341;SDS011;2693;48.822;9.062;2024-01-27T11:34:01;8.10;;;3.83;;
5341;SDS011;2693;48.822;9.062;2024-01-27T11:36:26;5.28;;;3.97;;
5341;SDS011;2693;48.822;9.062;2024-01-27T11:38:52;6.30;;;4.07;;
5341;SDS011;2693;48.822;9.062;2024-01-27T11:41:27;8.25;;;4.97;;
5341;SDS011;2693;48.822;9.062;2024-01-27T11:43:57;9.13;;;4.63;;
5341;SDS011;2693;48.822;9.062;2024-01-27T11:46:24;8.77;;;4.82;;
5341;SDS011;2693;48.822;9.062;2024-01-27T11:48:50;8.25;;;4.30;;
5341;SDS011;2693;48.822;9.062;2024-01-27T11:51:17;7.95;;;4.40;;
5341;SDS011;2693;48.822;9.062;2024-01-27T11:53:44;5.25;;;4.03;;
5341;SDS011;2693;48.822;9.062;2024-01-27T11:56:10;4.82;;;4.05;;
5341;SDS011;2693;48.822;9.062;2024-01-27T11:58:35;7.35;;;3.70;;
5341;SDS011;2693;48.822;9.062;2024-01-27T12:01:01;6.60;;;4.18;;
5341;SDS011;2693;48.822;9.062;2024-01-27T12:03:26;7.65;;;3.53;;
5341;SDS011;2693;48.822;9.062;2024-01-27T12:05:52;7.78;;;3.67;;
5341;SDS011;2693;48.822;9.062;2024-01-27T12:08:18;6.13;;;3.15;;
5341;SDS011;2693;48.822;9.062;2024-01-27T12:10:44;6.78;;;3.33;;
5341;SDS011;2693;48.822;9.062;2024-01-27T12:13:09;6.43;;;3.42;;
5341;SDS011;2693;48.822;9.062;2024-01-27T12:15:34;6.57;;;3.92;;
5341;SDS011;2693;48.822;9.062;2024-01-27T12:18:01;6.15;;;3.05;;
5341;SDS011;2693;48.822;9.062;2024-01-27T12:20:26;5.07;;;3.22;;
5341;SDS011;2693;48.822;9.062;2024-01-27T12:23:02;5.35;;;3.33;;
5341;SDS011;2693;48.822;9.062;2024-01-27T12:25:30;7.20;;;3.92;;
5341;SDS011;2693;48.822;9.062;2024-01-27T12:27:55;7.85;;;3.97;;
5341;SDS011;2693;48.822;9.062;2024-01-27T12:30:21;7.70;;;3.63;;
5341;SDS011;2693;48.822;9.062;2024-01-27T12:32:46;5.15;;;3.67;;
5341;SDS011;2693;48.822;9.062;2024-01-27T12:35:12;8.43;;;4.18;;
5341;SDS011;2693;48.822;9.062;2024-01-27T12:37:37;5.85;;;3.15;;
5341;SDS011;2693;48.822;9.062;2024-01-27T12:40:16;5.00;;;3.30;;
5341;SDS011;2693;48.822;9.062;2024-01-27T12:42:42;8.02;;;3.63;;
5341;SDS011;2693;48.822;9.062;2024-01-27T12:45:08;5.65;;;2.78;;
5341;SDS011;2693;48.822;9.062;2024-01-27T12:47:33;4.05;;;2.47;;
5341;SDS011;2693;48.822;9.062;2024-01-27T12:49:58;6.75;;;3.05;;
5341;SDS011;2693;48.822;9.062;2024-01-27T12:52:24;6.53;;;4.07;;
5341;SDS011;2693;48.822;9.062;2024-01-27T12:54:49;5.15;;;2.83;;
5341;SDS011;2693;48.822;9.062;2024-01-27T12:57:15;9.07;;;2.67;;
5341;SDS011;2693;48.822;9.062;2024-01-27T12:59:40;4.03;;;2.67;;
5341;SDS011;2693;48.822;9.062;2024-01-27T13:02:06;3.38;;;2.50;;
5341;SDS011;2693;48.822;9.062;2024-01-27T13:04:31;4.95;;;2.47;;
5341;SDS011;2693;48.822;9.062;2024-01-27T13:06:57;2.85;;;2.13;;
5341;SDS011;2693;48.822;9.062;2024-01-27T13:09:22;2.63;;;2.00;;
5341;SDS011;2693;48.822;9.062;2024-01-27T13:11:47;5.88;;;2.25;;
5341;SDS011;2693;48.822;9.062;2024-01-27T13:14:13;3.90;;;2.47;;
5341;SDS011;2693;48.822;9.062;2024-01-27T13:16:39;3.63;;;2.60;;
5341;SDS011;2693;48.822;9.062;2024-01-27T13:19:04;6.53;;;2.53;;
5341;SDS011;2693;48.822;9.062;2024-01-27T13:21:30;7.47;;;2.55;;
5341;SDS011;2693;48.822;9.062;2024-01-27T13:23:55;3.47;;;1.98;;
5341;SDS011;2693;48.822;9.062;2024-01-27T13:26:21;7.72;;;2.35;;
5341;SDS011;2693;48.822;9.062;2024-01-27T13:28:46;3.72;;;2.45;;
5341;SDS011;2693;48.822;9.062;2024-01-27T13:31:13;5.88;;;1.95;;
5341;SDS011;2693;48.822;9.062;2024-01-27T13:33:39;3.80;;;2.10;;
5341;SDS011;2693;48.822;9.062;2024-01-27T13:36:04;3.83;;;1.70;;
5341;SDS011;2693;48.822;9.062;2024-01-27T13:38:29;3.80;;;1.70;;
5341;SDS011;2693;48.822;9.062;2024-01-27T13:40:55;5.22;;;2.13;;
5341;SDS011;2693;48.822;9.062;2024-01-27T13:43:21;4.70;;;2.45;;
5341;SDS011;2693;48.822;9.062;2024-01-27T13:45:46;3.58;;;2.08;;
5341;SDS011;2693;48.822;9.062;2024-01-27T13:48:12;4.05;;;1.50;;
5341;SDS011;2693;48.822;9.062;2024-01-27T13:50:38;3.13;;;1.40;;
5341;SDS011;2693;48.822;9.062;2024-01-27T13:53:03;2.65;;;1.55;;
5341;SDS011;2693;48.822;9.062;2024-01-27T13:55:30;3.33;;;1.80;;
5341;SDS011;2693;48.822;9.062;2024-01-27T13:57:55;2.72;;;1.45;;
5341;SDS011;2693;48.822;9.062;2024-01-27T14:00:21;3.17;;;1.70;;
5341;SDS011;2693;48.822;9.062;2024-01-27T14:02:46;3.00;;;2.20;;
5341;SDS011;2693;48.822;9.062;2024-01-27T14:05:12;4.57;;;2.10;;
5341;SDS011;2693;48.822;9.062;2024-01-27T14:07:37;6.97;;;3.42;;
5341;SDS011;2693;48.822;9.062;2024-01-27T14:10:02;5.97;;;2.95;;
5341;SDS011;2693;48.822;9.062;2024-01-27T14:12:28;5.78;;;2.05;;
5341;SDS011;2693;48.822;9.062;2024-01-27T14:15:01;4.88;;;2.30;;
5341;SDS011;2693;48.822;9.062;2024-01-27T14:17:27;4.45;;;2.50;;
5341;SDS011;2693;48.822;9.062;2024-01-27T14:19:52;8.70;;;3.00;;
5341;SDS011;2693;48.822;9.062;2024-01-27T14:22:18;4.90;;;2.40;;
5341;SDS011;2693;48.822;9.062;2024-01-27T14:24:43;4.13;;;2.30;;
5341;SDS011;2693;48.822;9.062;2024-01-27T14:27:09;4.47;;;2.00;;
5341;SDS011;2693;48.822;9.062;2024-01-27T14:29:35;5.90;;;2.50;;
5341;SDS011;2693;48.822;9.062;2024-01-27T14:32:01;3.63;;;2.50;;
5341;SDS011;2693;48.822;9.062;2024-01-27T14:34:27;4.47;;;2.15;;
5341;SDS011;2693;48.822;9.062;2024-01-27T14:36:53;3.20;;;2.03;;
5341;SDS011;2693;48.822;9.062;2024-01-27T14:39:20;2.85;;;1.80;;
5341;SDS011;2693;48.822;9.062;2024-01-27T14:41:45;1.90;;;1.60;;
5341;SDS011;2693;48.822;9.062;2024-01-27T14:44:10;2.75;;;1.77;;
5341;SDS011;2693;48.822;9.062;2024-01-27T14:46:36;5.07;;;1.85;;
5341;SDS011;2693;48.822;9.062;2024-01-27T14:49:05;3.88;;;1.90;;
5341;SDS011;2693;48.822;9.062;2024-01-27T14:51:33;5.75;;;2.38;;
5341;SDS011;2693;48.822;9.062;2024-01-27T14:53:59;5.13;;;2.20;;
5341;SDS011;2693;48.822;9.062;2024-01-27T14:56:28;3.38;;;2.20;;
5341;SDS011;2693;48.822;9.062;2024-01-27T14:58:54;3.83;;;2.10;;
5341;SDS011;2693;48.822;9.062;2024-01-27T15:01:21;5.68;;;2.38;;
5341;SDS011;2693;48.822;9.062;2024-01-27T15:03:46;5.85;;;2.65;;
5341;SDS011;2693;48.822;9.062;2024-01-27T15:06:12;4.45;;;2.70;;